Portada
METAR-TAF:

METAR-TAF

Aeropuertos :

Aeropuerto de Rímini

Rímini, Italia

latitud: 44-02N, longitud: 012-37E, altitud: 12 m

Observación

El informe se hizo hace 21 minutos, a las 16:20 UTC
Viento 10 kt del este-sureste
Temperatura 10°C
Humedad 71%
Presión 999 hPa
Visibilidad 10 km o más
Escasas nubes a una altura de 5000 ft

METAR: LIPR 041620Z 12010KT 9999 FEW050 10/05 Q0999

Hora: 17:41 (16:41 UTC)

Pronóstico

El informe se hizo hace 2 horas y 41 minutos, a las 14:00 UTC
Pronóstico válido del 04 a las 15 UTC al 04 a las 24 UTC
Viento 10 kt del sur-sureste
Visibilidad: 8000 m
Nubes dispersas a una altura de 3000 ft
Temporalmente
del 04 a las 15 UTC al 04 a las 24 UTC
Viento 15 kt del sur-sureste con ráfagas de 25 kt
Temporalmente
del 04 a las 22 UTC al 04 a las 24 UTC
lluvia

TAF: LIPR 041400Z 0415/0424 16010KT 8000 SCT030 TEMPO 0415/0424 16015G25KT TEMPO 0422/0424 RA

Observaciones y pronósticos meteorológicos de más de 4000 aeropuertos (mensajes METAR y TAF).

Los puntos amarillos y rojos representan las estaciones disponibles.

Ponga el ratón en el punto deseado para ver el nombre de la estación.

Haga clic para ver las observaciones y los pronósticos meteorológicos.

Para cambiar el mapa : haga clic en los botones verdes con una cruz de color negro para hacer un zoom, en el botón verde con un guión para alejar o en las flechas verdes para mapas adyacentes.


METAR-TAF: